sensor_id;sensor_type;location;lat;lon;timestamp;P1;durP1;ratioP1;P2;durP2;ratioP2
76591;SDS011;65481;47.600;19.682;2023-04-19T00:04:51;6.65;;;4.10;;
76591;SDS011;65481;47.600;19.682;2023-04-19T00:09:52;8.15;;;4.82;;
76591;SDS011;65481;47.600;19.682;2023-04-19T00:14:52;7.50;;;4.10;;
76591;SDS011;65481;47.600;19.682;2023-04-19T00:19:53;6.78;;;4.35;;
76591;SDS011;65481;47.600;19.682;2023-04-19T00:24:53;8.88;;;4.50;;
76591;SDS011;65481;47.600;19.682;2023-04-19T00:29:53;6.63;;;4.43;;
76591;SDS011;65481;47.600;19.682;2023-04-19T00:34:54;5.97;;;4.05;;
76591;SDS011;65481;47.600;19.682;2023-04-19T00:39:54;7.43;;;4.63;;
76591;SDS011;65481;47.600;19.682;2023-04-19T00:44:55;9.77;;;5.68;;
76591;SDS011;65481;47.600;19.682;2023-04-19T00:49:55;7.03;;;4.80;;
76591;SDS011;65481;47.600;19.682;2023-04-19T00:54:56;5.95;;;5.13;;
76591;SDS011;65481;47.600;19.682;2023-04-19T00:59:57;7.05;;;4.68;;
76591;SDS011;65481;47.600;19.682;2023-04-19T01:04:58;7.18;;;5.00;;
76591;SDS011;65481;47.600;19.682;2023-04-19T01:09:58;9.00;;;5.10;;
76591;SDS011;65481;47.600;19.682;2023-04-19T01:14:58;6.57;;;4.93;;
76591;SDS011;65481;47.600;19.682;2023-04-19T01:19:59;7.28;;;4.20;;
76591;SDS011;65481;47.600;19.682;2023-04-19T01:25:00;6.18;;;4.10;;
76591;SDS011;65481;47.600;19.682;2023-04-19T01:30:01;6.40;;;4.20;;
76591;SDS011;65481;47.600;19.682;2023-04-19T01:35:01;6.00;;;4.05;;
76591;SDS011;65481;47.600;19.682;2023-04-19T01:40:05;7.75;;;5.10;;
76591;SDS011;65481;47.600;19.682;2023-04-19T01:45:06;8.20;;;4.65;;
76591;SDS011;65481;47.600;19.682;2023-04-19T01:50:07;6.68;;;4.45;;
76591;SDS011;65481;47.600;19.682;2023-04-19T01:55:08;7.30;;;4.65;;
76591;SDS011;65481;47.600;19.682;2023-04-19T02:00:09;9.70;;;4.55;;
76591;SDS011;65481;47.600;19.682;2023-04-19T02:05:10;8.13;;;4.80;;
76591;SDS011;65481;47.600;19.682;2023-04-19T02:10:10;5.30;;;4.15;;
76591;SDS011;65481;47.600;19.682;2023-04-19T02:15:11;7.78;;;4.50;;
76591;SDS011;65481;47.600;19.682;2023-04-19T02:20:11;7.25;;;4.40;;
76591;SDS011;65481;47.600;19.682;2023-04-19T02:25:12;7.32;;;4.38;;
76591;SDS011;65481;47.600;19.682;2023-04-19T02:30:15;6.45;;;4.93;;
76591;SDS011;65481;47.600;19.682;2023-04-19T02:35:15;6.07;;;4.60;;
76591;SDS011;65481;47.600;19.682;2023-04-19T02:40:16;5.15;;;4.32;;
76591;SDS011;65481;47.600;19.682;2023-04-19T02:45:16;4.45;;;3.47;;
76591;SDS011;65481;47.600;19.682;2023-04-19T02:50:17;6.20;;;3.63;;
76591;SDS011;65481;47.600;19.682;2023-04-19T02:55:18;6.53;;;3.92;;
76591;SDS011;65481;47.600;19.682;2023-04-19T03:00:18;6.15;;;3.67;;
76591;SDS011;65481;47.600;19.682;2023-04-19T03:05:39;6.28;;;3.40;;
76591;SDS011;65481;47.600;19.682;2023-04-19T03:10:39;7.30;;;3.58;;
76591;SDS011;65481;47.600;19.682;2023-04-19T03:15:40;5.78;;;3.70;;
76591;SDS011;65481;47.600;19.682;2023-04-19T03:20:40;5.45;;;3.63;;
76591;SDS011;65481;47.600;19.682;2023-04-19T03:25:41;8.60;;;3.38;;
76591;SDS011;65481;47.600;19.682;2023-04-19T03:30:41;6.80;;;4.05;;
76591;SDS011;65481;47.600;19.682;2023-04-19T03:35:42;5.93;;;3.42;;
76591;SDS011;65481;47.600;19.682;2023-04-19T03:40:43;5.32;;;3.97;;
76591;SDS011;65481;47.600;19.682;2023-04-19T03:45:44;5.47;;;3.20;;
76591;SDS011;65481;47.600;19.682;2023-04-19T03:50:44;6.65;;;3.58;;
76591;SDS011;65481;47.600;19.682;2023-04-19T03:55:45;4.93;;;3.30;;
76591;SDS011;65481;47.600;19.682;2023-04-19T04:00:45;5.75;;;3.33;;
76591;SDS011;65481;47.600;19.682;2023-04-19T04:05:46;5.15;;;3.55;;
76591;SDS011;65481;47.600;19.682;2023-04-19T04:10:47;7.22;;;4.25;;
76591;SDS011;65481;47.600;19.682;2023-04-19T04:15:48;5.07;;;3.28;;
76591;SDS011;65481;47.600;19.682;2023-04-19T04:20:48;8.90;;;3.83;;
76591;SDS011;65481;47.600;19.682;2023-04-19T04:25:58;9.82;;;4.15;;
76591;SDS011;65481;47.600;19.682;2023-04-19T04:31:04;5.80;;;3.80;;
76591;SDS011;65481;47.600;19.682;2023-04-19T04:36:05;6.85;;;3.90;;
76591;SDS011;65481;47.600;19.682;2023-04-19T04:41:06;5.38;;;3.42;;
76591;SDS011;65481;47.600;19.682;2023-04-19T04:46:07;5.53;;;3.53;;
76591;SDS011;65481;47.600;19.682;2023-04-19T04:51:08;5.38;;;3.63;;
76591;SDS011;65481;47.600;19.682;2023-04-19T04:56:08;6.20;;;4.30;;
76591;SDS011;65481;47.600;19.682;2023-04-19T05:01:09;5.97;;;3.35;;
76591;SDS011;65481;47.600;19.682;2023-04-19T05:06:09;5.65;;;3.33;;
76591;SDS011;65481;47.600;19.682;2023-04-19T05:11:10;5.70;;;4.00;;
76591;SDS011;65481;47.600;19.682;2023-04-19T05:16:10;7.03;;;4.10;;
76591;SDS011;65481;47.600;19.682;2023-04-19T05:21:11;4.57;;;3.38;;
76591;SDS011;65481;47.600;19.682;2023-04-19T05:26:11;9.30;;;3.45;;
76591;SDS011;65481;47.600;19.682;2023-04-19T05:31:14;3.80;;;3.03;;
76591;SDS011;65481;47.600;19.682;2023-04-19T05:36:14;7.97;;;4.03;;
76591;SDS011;65481;47.600;19.682;2023-04-19T05:41:15;5.68;;;4.22;;
76591;SDS011;65481;47.600;19.682;2023-04-19T05:46:15;6.97;;;3.78;;
76591;SDS011;65481;47.600;19.682;2023-04-19T05:51:16;6.80;;;3.97;;
76591;SDS011;65481;47.600;19.682;2023-04-19T05:56:18;6.28;;;3.55;;
76591;SDS011;65481;47.600;19.682;2023-04-19T06:01:18;8.23;;;4.10;;
76591;SDS011;65481;47.600;19.682;2023-04-19T06:06:20;7.35;;;4.05;;
76591;SDS011;65481;47.600;19.682;2023-04-19T06:11:21;7.03;;;4.10;;
76591;SDS011;65481;47.600;19.682;2023-04-19T06:16:22;5.70;;;4.40;;
76591;SDS011;65481;47.600;19.682;2023-04-19T06:21:22;5.22;;;4.30;;
76591;SDS011;65481;47.600;19.682;2023-04-19T06:26:23;9.52;;;4.90;;
76591;SDS011;65481;47.600;19.682;2023-04-19T06:31:23;5.82;;;4.65;;
76591;SDS011;65481;47.600;19.682;2023-04-19T06:36:24;7.22;;;4.80;;
76591;SDS011;65481;47.600;19.682;2023-04-19T06:41:25;5.20;;;4.00;;
76591;SDS011;65481;47.600;19.682;2023-04-19T06:46:25;7.07;;;4.43;;
76591;SDS011;65481;47.600;19.682;2023-04-19T06:51:26;7.05;;;4.60;;
76591;SDS011;65481;47.600;19.682;2023-04-19T06:56:46;6.93;;;4.30;;
76591;SDS011;65481;47.600;19.682;2023-04-19T07:01:47;7.63;;;4.60;;
76591;SDS011;65481;47.600;19.682;2023-04-19T07:06:48;14.05;;;4.70;;
76591;SDS011;65481;47.600;19.682;2023-04-19T07:11:49;5.50;;;4.22;;
76591;SDS011;65481;47.600;19.682;2023-04-19T07:16:50;7.70;;;4.53;;
76591;SDS011;65481;47.600;19.682;2023-04-19T07:21:52;6.47;;;4.88;;
76591;SDS011;65481;47.600;19.682;2023-04-19T07:26:53;6.93;;;4.47;;
76591;SDS011;65481;47.600;19.682;2023-04-19T07:31:53;7.57;;;5.22;;
76591;SDS011;65481;47.600;19.682;2023-04-19T07:36:54;6.18;;;4.82;;
76591;SDS011;65481;47.600;19.682;2023-04-19T07:41:55;5.95;;;4.30;;
76591;SDS011;65481;47.600;19.682;2023-04-19T07:46:55;8.18;;;4.82;;
76591;SDS011;65481;47.600;19.682;2023-04-19T07:52:01;5.38;;;4.40;;
76591;SDS011;65481;47.600;19.682;2023-04-19T07:57:02;6.03;;;4.45;;
76591;SDS011;65481;47.600;19.682;2023-04-19T08:02:02;6.15;;;4.22;;
76591;SDS011;65481;47.600;19.682;2023-04-19T08:07:03;5.40;;;4.90;;
76591;SDS011;65481;47.600;19.682;2023-04-19T08:12:03;8.63;;;4.85;;
76591;SDS011;65481;47.600;19.682;2023-04-19T08:17:04;8.73;;;5.10;;
76591;SDS011;65481;47.600;19.682;2023-04-19T08:22:05;6.90;;;4.82;;
76591;SDS011;65481;47.600;19.682;2023-04-19T08:27:06;6.55;;;4.60;;
76591;SDS011;65481;47.600;19.682;2023-04-19T08:32:06;6.30;;;4.82;;
76591;SDS011;65481;47.600;19.682;2023-04-19T08:37:07;7.30;;;5.55;;
76591;SDS011;65481;47.600;19.682;2023-04-19T08:42:08;6.18;;;4.80;;
76591;SDS011;65481;47.600;19.682;2023-04-19T08:47:09;7.68;;;4.78;;
76591;SDS011;65481;47.600;19.682;2023-04-19T08:52:11;6.30;;;4.90;;
76591;SDS011;65481;47.600;19.682;2023-04-19T08:57:13;9.60;;;4.90;;
76591;SDS011;65481;47.600;19.682;2023-04-19T09:02:14;6.82;;;4.85;;
76591;SDS011;65481;47.600;19.682;2023-04-19T09:07:23;6.95;;;4.40;;
76591;SDS011;65481;47.600;19.682;2023-04-19T09:12:25;5.50;;;4.18;;
76591;SDS011;65481;47.600;19.682;2023-04-19T09:17:26;5.72;;;4.13;;
76591;SDS011;65481;47.600;19.682;2023-04-19T09:22:26;6.38;;;3.92;;
76591;SDS011;65481;47.600;19.682;2023-04-19T09:27:28;4.18;;;3.72;;
76591;SDS011;65481;47.600;19.682;2023-04-19T09:32:43;5.28;;;4.13;;
76591;SDS011;65481;47.600;19.682;2023-04-19T09:38:00;5.28;;;3.97;;
76591;SDS011;65481;47.600;19.682;2023-04-19T09:43:01;4.70;;;3.70;;
76591;SDS011;65481;47.600;19.682;2023-04-19T09:48:03;6.45;;;4.22;;
76591;SDS011;65481;47.600;19.682;2023-04-19T09:53:06;5.90;;;3.78;;
76591;SDS011;65481;47.600;19.682;2023-04-19T09:58:07;4.32;;;3.92;;
76591;SDS011;65481;47.600;19.682;2023-04-19T10:03:08;6.72;;;4.10;;
76591;SDS011;65481;47.600;19.682;2023-04-19T10:08:10;5.88;;;3.80;;
76591;SDS011;65481;47.600;19.682;2023-04-19T10:13:12;4.93;;;4.00;;
76591;SDS011;65481;47.600;19.682;2023-04-19T10:18:21;5.95;;;3.63;;
76591;SDS011;65481;47.600;19.682;2023-04-19T10:23:22;5.82;;;3.40;;
76591;SDS011;65481;47.600;19.682;2023-04-19T10:28:23;4.68;;;3.60;;
76591;SDS011;65481;47.600;19.682;2023-04-19T10:33:28;5.38;;;3.40;;
76591;SDS011;65481;47.600;19.682;2023-04-19T10:43:39;5.40;;;3.70;;
76591;SDS011;65481;47.600;19.682;2023-04-19T10:53:58;5.28;;;3.55;;
76591;SDS011;65481;47.600;19.682;2023-04-19T11:04:12;5.10;;;3.25;;
76591;SDS011;65481;47.600;19.682;2023-04-19T11:09:23;5.73;;;3.23;;
76591;SDS011;65481;47.600;19.682;2023-04-19T11:14:25;6.07;;;2.90;;
76591;SDS011;65481;47.600;19.682;2023-04-19T11:19:26;4.13;;;3.42;;
76591;SDS011;65481;47.600;19.682;2023-04-19T11:24:26;5.90;;;3.95;;
76591;SDS011;65481;47.600;19.682;2023-04-19T11:29:27;5.75;;;3.53;;
76591;SDS011;65481;47.600;19.682;2023-04-19T11:34:27;5.95;;;3.45;;
76591;SDS011;65481;47.600;19.682;2023-04-19T11:39:28;4.97;;;3.20;;
76591;SDS011;65481;47.600;19.682;2023-04-19T11:44:29;4.50;;;3.10;;
76591;SDS011;65481;47.600;19.682;2023-04-19T11:49:31;5.38;;;3.50;;
76591;SDS011;65481;47.600;19.682;2023-04-19T11:54:32;5.15;;;3.72;;
76591;SDS011;65481;47.600;19.682;2023-04-19T11:59:34;4.13;;;3.45;;
76591;SDS011;65481;47.600;19.682;2023-04-19T12:04:35;5.05;;;3.22;;
76591;SDS011;65481;47.600;19.682;2023-04-19T12:09:37;5.25;;;3.53;;
76591;SDS011;65481;47.600;19.682;2023-04-19T12:14:38;5.47;;;3.28;;
76591;SDS011;65481;47.600;19.682;2023-04-19T12:19:42;5.78;;;3.30;;
76591;SDS011;65481;47.600;19.682;2023-04-19T12:24:45;5.88;;;3.03;;
76591;SDS011;65481;47.600;19.682;2023-04-19T12:29:45;5.95;;;2.85;;
76591;SDS011;65481;47.600;19.682;2023-04-19T12:34:46;4.38;;;2.72;;
76591;SDS011;65481;47.600;19.682;2023-04-19T12:39:46;4.13;;;2.60;;
76591;SDS011;65481;47.600;19.682;2023-04-19T12:44:46;5.38;;;2.92;;
76591;SDS011;65481;47.600;19.682;2023-04-19T12:49:47;6.72;;;2.70;;
76591;SDS011;65481;47.600;19.682;2023-04-19T12:54:47;4.72;;;3.25;;
76591;SDS011;65481;47.600;19.682;2023-04-19T12:59:48;3.47;;;2.92;;
76591;SDS011;65481;47.600;19.682;2023-04-19T13:04:49;4.60;;;3.00;;
76591;SDS011;65481;47.600;19.682;2023-04-19T13:09:49;4.93;;;3.20;;
76591;SDS011;65481;47.600;19.682;2023-04-19T13:14:50;6.28;;;3.25;;
76591;SDS011;65481;47.600;19.682;2023-04-19T13:19:51;5.75;;;3.38;;
76591;SDS011;65481;47.600;19.682;2023-04-19T13:24:51;3.72;;;3.25;;
76591;SDS011;65481;47.600;19.682;2023-04-19T13:29:55;6.85;;;3.30;;
76591;SDS011;65481;47.600;19.682;2023-04-19T13:34:56;7.60;;;3.70;;
76591;SDS011;65481;47.600;19.682;2023-04-19T13:39:56;4.22;;;3.17;;
76591;SDS011;65481;47.600;19.682;2023-04-19T13:44:57;4.13;;;3.40;;
76591;SDS011;65481;47.600;19.682;2023-04-19T13:49:57;4.28;;;3.50;;
76591;SDS011;65481;47.600;19.682;2023-04-19T13:54:58;4.45;;;3.40;;
76591;SDS011;65481;47.600;19.682;2023-04-19T13:59:58;3.63;;;3.15;;
76591;SDS011;65481;47.600;19.682;2023-04-19T14:04:59;5.47;;;3.88;;
76591;SDS011;65481;47.600;19.682;2023-04-19T14:09:59;4.65;;;3.47;;
76591;SDS011;65481;47.600;19.682;2023-04-19T14:15:00;3.88;;;3.30;;
76591;SDS011;65481;47.600;19.682;2023-04-19T14:20:00;6.57;;;3.28;;
76591;SDS011;65481;47.600;19.682;2023-04-19T14:25:02;4.20;;;3.42;;
76591;SDS011;65481;47.600;19.682;2023-04-19T14:30:04;4.80;;;3.30;;
76591;SDS011;65481;47.600;19.682;2023-04-19T14:35:06;6.32;;;3.55;;
76591;SDS011;65481;47.600;19.682;2023-04-19T14:40:11;5.55;;;3.33;;
76591;SDS011;65481;47.600;19.682;2023-04-19T14:45:11;5.50;;;3.30;;
76591;SDS011;65481;47.600;19.682;2023-04-19T14:50:12;7.18;;;2.97;;
76591;SDS011;65481;47.600;19.682;2023-04-19T14:55:12;3.58;;;2.60;;
76591;SDS011;65481;47.600;19.682;2023-04-19T15:00:13;4.50;;;2.83;;
76591;SDS011;65481;47.600;19.682;2023-04-19T15:05:13;8.98;;;6.18;;
76591;SDS011;65481;47.600;19.682;2023-04-19T15:10:14;8.32;;;5.60;;
76591;SDS011;65481;47.600;19.682;2023-04-19T15:15:15;9.02;;;5.65;;
76591;SDS011;65481;47.600;19.682;2023-04-19T15:20:15;10.50;;;6.18;;
76591;SDS011;65481;47.600;19.682;2023-04-19T15:25:16;13.40;;;8.35;;
76591;SDS011;65481;47.600;19.682;2023-04-19T15:30:16;9.63;;;6.38;;
76591;SDS011;65481;47.600;19.682;2023-04-19T15:35:17;10.15;;;6.00;;
76591;SDS011;65481;47.600;19.682;2023-04-19T15:40:18;11.27;;;6.63;;
76591;SDS011;65481;47.600;19.682;2023-04-19T15:45:20;9.23;;;6.28;;
76591;SDS011;65481;47.600;19.682;2023-04-19T15:50:21;8.25;;;6.18;;
76591;SDS011;65481;47.600;19.682;2023-04-19T15:55:22;5.63;;;4.35;;
76591;SDS011;65481;47.600;19.682;2023-04-19T16:00:22;8.50;;;6.15;;
76591;SDS011;65481;47.600;19.682;2023-04-19T16:05:23;9.40;;;4.57;;
76591;SDS011;65481;47.600;19.682;2023-04-19T16:10:23;39.60;;;21.52;;
76591;SDS011;65481;47.600;19.682;2023-04-19T16:15:24;6.75;;;5.55;;
76591;SDS011;65481;47.600;19.682;2023-04-19T16:20:24;7.28;;;5.50;;
76591;SDS011;65481;47.600;19.682;2023-04-19T16:25:25;7.90;;;5.05;;
76591;SDS011;65481;47.600;19.682;2023-04-19T16:30:26;9.68;;;6.18;;
76591;SDS011;65481;47.600;19.682;2023-04-19T16:35:26;9.48;;;5.82;;
76591;SDS011;65481;47.600;19.682;2023-04-19T16:40:27;7.45;;;5.78;;
76591;SDS011;65481;47.600;19.682;2023-04-19T16:45:27;10.38;;;6.55;;
76591;SDS011;65481;47.600;19.682;2023-04-19T16:50:28;15.18;;;11.38;;
76591;SDS011;65481;47.600;19.682;2023-04-19T16:55:28;23.35;;;16.13;;
76591;SDS011;65481;47.600;19.682;2023-04-19T17:00:29;10.15;;;8.30;;
76591;SDS011;65481;47.600;19.682;2023-04-19T17:05:29;10.98;;;7.93;;
76591;SDS011;65481;47.600;19.682;2023-04-19T17:10:30;8.82;;;6.43;;
76591;SDS011;65481;47.600;19.682;2023-04-19T17:15:30;11.30;;;6.72;;
76591;SDS011;65481;47.600;19.682;2023-04-19T17:20:31;9.00;;;6.22;;
76591;SDS011;65481;47.600;19.682;2023-04-19T17:25:31;10.23;;;7.32;;
76591;SDS011;65481;47.600;19.682;2023-04-19T17:30:32;17.67;;;9.75;;
76591;SDS011;65481;47.600;19.682;2023-04-19T17:35:32;21.48;;;10.77;;
76591;SDS011;65481;47.600;19.682;2023-04-19T17:40:33;7.75;;;5.65;;
76591;SDS011;65481;47.600;19.682;2023-04-19T17:45:35;8.07;;;5.90;;
76591;SDS011;65481;47.600;19.682;2023-04-19T17:50:36;8.73;;;5.85;;
76591;SDS011;65481;47.600;19.682;2023-04-19T17:55:36;7.47;;;5.88;;
76591;SDS011;65481;47.600;19.682;2023-04-19T18:00:37;7.95;;;5.82;;
76591;SDS011;65481;47.600;19.682;2023-04-19T18:05:39;10.40;;;6.50;;
76591;SDS011;65481;47.600;19.682;2023-04-19T18:10:39;9.27;;;6.78;;
76591;SDS011;65481;47.600;19.682;2023-04-19T18:15:40;9.05;;;7.18;;
76591;SDS011;65481;47.600;19.682;2023-04-19T18:20:41;10.77;;;7.50;;
76591;SDS011;65481;47.600;19.682;2023-04-19T18:25:42;12.45;;;8.30;;
76591;SDS011;65481;47.600;19.682;2023-04-19T18:30:42;16.10;;;9.32;;
76591;SDS011;65481;47.600;19.682;2023-04-19T18:35:43;10.82;;;7.93;;
76591;SDS011;65481;47.600;19.682;2023-04-19T18:40:45;10.70;;;8.25;;
76591;SDS011;65481;47.600;19.682;2023-04-19T18:45:53;11.65;;;8.05;;
76591;SDS011;65481;47.600;19.682;2023-04-19T18:50:55;13.57;;;7.97;;
76591;SDS011;65481;47.600;19.682;2023-04-19T18:55:56;12.23;;;9.20;;
76591;SDS011;65481;47.600;19.682;2023-04-19T19:00:59;11.27;;;7.90;;
76591;SDS011;65481;47.600;19.682;2023-04-19T19:06:00;11.18;;;7.38;;
76591;SDS011;65481;47.600;19.682;2023-04-19T19:11:01;9.90;;;6.88;;
76591;SDS011;65481;47.600;19.682;2023-04-19T19:16:03;16.17;;;9.98;;
76591;SDS011;65481;47.600;19.682;2023-04-19T19:21:04;15.43;;;9.77;;
76591;SDS011;65481;47.600;19.682;2023-04-19T19:26:06;13.10;;;8.70;;
76591;SDS011;65481;47.600;19.682;2023-04-19T19:31:07;12.48;;;8.85;;
76591;SDS011;65481;47.600;19.682;2023-04-19T19:36:08;11.60;;;7.93;;
76591;SDS011;65481;47.600;19.682;2023-04-19T19:41:08;10.18;;;7.50;;
76591;SDS011;65481;47.600;19.682;2023-04-19T19:46:09;12.95;;;8.63;;
76591;SDS011;65481;47.600;19.682;2023-04-19T19:51:11;11.25;;;8.32;;
76591;SDS011;65481;47.600;19.682;2023-04-19T19:56:12;11.55;;;8.05;;
76591;SDS011;65481;47.600;19.682;2023-04-19T20:01:13;12.95;;;8.30;;
76591;SDS011;65481;47.600;19.682;2023-04-19T20:06:14;13.98;;;10.07;;
76591;SDS011;65481;47.600;19.682;2023-04-19T20:11:15;12.02;;;8.00;;
76591;SDS011;65481;47.600;19.682;2023-04-19T20:16:16;14.90;;;9.32;;
76591;SDS011;65481;47.600;19.682;2023-04-19T20:21:20;11.98;;;7.85;;
76591;SDS011;65481;47.600;19.682;2023-04-19T20:26:20;12.93;;;7.50;;
76591;SDS011;65481;47.600;19.682;2023-04-19T20:31:21;14.93;;;10.18;;
76591;SDS011;65481;47.600;19.682;2023-04-19T20:36:22;21.70;;;14.57;;
76591;SDS011;65481;47.600;19.682;2023-04-19T20:41:24;17.40;;;11.77;;
76591;SDS011;65481;47.600;19.682;2023-04-19T20:46:26;15.70;;;11.18;;
76591;SDS011;65481;47.600;19.682;2023-04-19T20:51:26;17.75;;;12.43;;
76591;SDS011;65481;47.600;19.682;2023-04-19T20:56:27;20.38;;;12.85;;
76591;SDS011;65481;47.600;19.682;2023-04-19T21:01:28;16.20;;;11.38;;
76591;SDS011;65481;47.600;19.682;2023-04-19T21:06:28;14.57;;;11.15;;
76591;SDS011;65481;47.600;19.682;2023-04-19T21:11:29;15.25;;;10.52;;
76591;SDS011;65481;47.600;19.682;2023-04-19T21:16:29;17.40;;;10.60;;
76591;SDS011;65481;47.600;19.682;2023-04-19T21:21:31;17.83;;;10.85;;
76591;SDS011;65481;47.600;19.682;2023-04-19T21:26:31;17.17;;;10.80;;
76591;SDS011;65481;47.600;19.682;2023-04-19T21:31:32;20.38;;;11.88;;
76591;SDS011;65481;47.600;19.682;2023-04-19T21:36:32;27.70;;;14.65;;
76591;SDS011;65481;47.600;19.682;2023-04-19T21:41:34;17.52;;;12.25;;
76591;SDS011;65481;47.600;19.682;2023-04-19T21:46:35;19.05;;;11.48;;
76591;SDS011;65481;47.600;19.682;2023-04-19T21:51:35;16.70;;;11.90;;
76591;SDS011;65481;47.600;19.682;2023-04-19T21:56:36;17.65;;;12.35;;
76591;SDS011;65481;47.600;19.682;2023-04-19T22:01:36;19.40;;;12.48;;
76591;SDS011;65481;47.600;19.682;2023-04-19T22:24:27;17.45;;;10.90;;
76591;SDS011;65481;47.600;19.682;2023-04-19T22:29:28;14.10;;;10.25;;
76591;SDS011;65481;47.600;19.682;2023-04-19T22:34:29;15.13;;;10.18;;
76591;SDS011;65481;47.600;19.682;2023-04-19T22:39:30;14.80;;;10.23;;
76591;SDS011;65481;47.600;19.682;2023-04-19T22:44:30;13.73;;;9.48;;
76591;SDS011;65481;47.600;19.682;2023-04-19T22:49:30;14.18;;;9.38;;
76591;SDS011;65481;47.600;19.682;2023-04-19T22:54:32;13.73;;;9.73;;
76591;SDS011;65481;47.600;19.682;2023-04-19T22:59:32;15.57;;;10.13;;
76591;SDS011;65481;47.600;19.682;2023-04-19T23:04:33;13.93;;;10.60;;
76591;SDS011;65481;47.600;19.682;2023-04-19T23:09:34;14.43;;;9.25;;
76591;SDS011;65481;47.600;19.682;2023-04-19T23:14:38;13.85;;;9.73;;
76591;SDS011;65481;47.600;19.682;2023-04-19T23:19:38;11.57;;;8.05;;
76591;SDS011;65481;47.600;19.682;2023-04-19T23:24:39;14.73;;;9.02;;
76591;SDS011;65481;47.600;19.682;2023-04-19T23:29:39;12.95;;;9.32;;
76591;SDS011;65481;47.600;19.682;2023-04-19T23:34:40;13.65;;;9.45;;
76591;SDS011;65481;47.600;19.682;2023-04-19T23:39:40;14.50;;;9.02;;
76591;SDS011;65481;47.600;19.682;2023-04-19T23:44:41;15.60;;;9.82;;
76591;SDS011;65481;47.600;19.682;2023-04-19T23:49:41;12.32;;;9.25;;
76591;SDS011;65481;47.600;19.682;2023-04-19T23:54:42;13.50;;;8.40;;
76591;SDS011;65481;47.600;19.682;2023-04-19T23:59:42;14.05;;;9.13;;
